createdAt,value
2018-06-12T00:02:19.468Z,91.70
2018-06-12T00:04:47.708Z,91.40
2018-06-12T00:07:15.928Z,91.20
2018-06-12T00:09:44.133Z,91.40
2018-06-12T00:12:12.345Z,90.10
2018-06-12T00:14:40.546Z,88.80
2018-06-12T00:17:08.780Z,88.30
2018-06-12T00:19:36.996Z,88.90
2018-06-12T00:22:05.233Z,88.20
2018-06-12T00:24:33.430Z,88.90
2018-06-12T00:27:01.668Z,90.30
2018-06-12T00:29:29.884Z,90.60
2018-06-12T00:31:58.131Z,90.10
2018-06-12T00:34:26.354Z,90.90
2018-06-12T00:36:54.619Z,90.30
2018-06-12T00:39:22.818Z,90.40
2018-06-12T00:41:51.035Z,91.00
2018-06-12T00:44:19.284Z,90.80
2018-06-12T00:46:47.568Z,90.50
2018-06-12T00:49:15.789Z,91.00
2018-06-12T00:51:44.024Z,91.50
2018-06-12T00:54:12.243Z,91.30
2018-06-12T00:56:51.760Z,91.10
2018-06-12T00:59:20.037Z,91.30
2018-06-12T01:01:48.268Z,91.80
2018-06-12T01:04:16.527Z,91.90
2018-06-12T01:06:44.740Z,91.90
2018-06-12T01:09:12.968Z,91.90
2018-06-12T01:11:41.171Z,90.50
2018-06-12T01:14:09.840Z,91.10
2018-06-12T01:16:38.060Z,91.80
2018-06-12T01:19:06.283Z,92.20
2018-06-12T01:21:34.487Z,92.50
2018-06-12T01:26:30.723Z,92.70
2018-06-12T01:28:58.937Z,91.40
2018-06-12T01:31:27.164Z,91.60
2018-06-12T01:33:55.364Z,91.90
2018-06-12T01:36:23.583Z,91.90
2018-06-12T01:38:51.775Z,91.90
2018-06-12T01:41:19.984Z,91.90
2018-06-12T01:46:17.094Z,91.10
2018-06-12T01:48:45.302Z,90.90
2018-06-12T01:51:13.529Z,90.70
2018-06-12T01:53:41.749Z,90.80
2018-06-12T01:56:09.965Z,90.20
2018-06-12T01:58:38.185Z,90.60
2018-06-12T02:01:06.403Z,89.50
2018-06-12T02:03:34.628Z,90.20
2018-06-12T02:06:02.863Z,89.60
2018-06-12T02:08:31.065Z,90.50
2018-06-12T02:10:59.263Z,90.40
2018-06-12T02:13:27.492Z,89.80
2018-06-12T02:15:55.679Z,90.20
2018-06-12T02:18:23.899Z,90.00
2018-06-12T02:20:52.127Z,90.20
2018-06-12T02:23:20.348Z,90.50
2018-06-12T02:25:48.550Z,90.60
2018-06-12T02:28:16.792Z,90.40
2018-06-12T02:30:45.012Z,90.40
2018-06-12T02:33:13.241Z,90.50
2018-06-12T02:35:41.444Z,90.60
2018-06-12T02:38:09.864Z,90.70
2018-06-12T02:40:38.063Z,90.60
2018-06-12T02:43:06.284Z,90.50
2018-06-12T02:45:34.498Z,90.80
2018-06-12T02:48:02.752Z,90.50
2018-06-12T02:50:30.965Z,90.40
2018-06-12T02:52:59.170Z,90.70
2018-06-12T02:55:27.403Z,90.70
2018-06-12T02:57:55.637Z,90.40
2018-06-12T03:00:23.877Z,90.30
2018-06-12T03:02:52.102Z,90.50
2018-06-12T03:05:20.329Z,90.40
2018-06-12T03:07:48.539Z,90.40
2018-06-12T03:10:16.775Z,90.60
2018-06-12T03:12:45.008Z,90.50
2018-06-12T03:15:13.234Z,90.20
2018-06-12T03:17:41.444Z,90.40
2018-06-12T03:20:09.944Z,90.40
2018-06-12T03:22:38.152Z,90.00
2018-06-12T03:25:06.383Z,90.40
2018-06-12T03:27:34.613Z,90.20
2018-06-12T03:30:02.841Z,89.40
2018-06-12T03:32:31.044Z,89.60
2018-06-12T03:34:59.254Z,88.20
2018-06-12T03:37:27.460Z,87.70
2018-06-12T03:39:55.717Z,87.60
2018-06-12T03:42:23.917Z,89.00
2018-06-12T03:44:52.152Z,88.20
2018-06-12T03:47:20.390Z,88.40
2018-06-12T03:49:48.600Z,87.50
2018-06-12T03:52:23.335Z,86.50
2018-06-12T03:54:51.822Z,85.20
2018-06-12T03:57:20.040Z,83.70
2018-06-12T03:59:48.235Z,84.20
2018-06-12T04:02:16.452Z,83.90
2018-06-12T04:04:44.708Z,83.70
2018-06-12T04:07:12.924Z,82.80
2018-06-12T04:09:41.122Z,82.70
2018-06-12T04:12:09.384Z,83.00
2018-06-12T04:14:37.591Z,82.80
2018-06-12T04:17:05.936Z,81.80
2018-06-12T04:19:35.623Z,81.00
2018-06-12T04:22:03.852Z,83.40
2018-06-12T04:24:32.083Z,82.50
2018-06-12T04:27:00.297Z,81.20
2018-06-12T04:29:28.522Z,82.10
2018-06-12T04:31:56.718Z,82.30
2018-06-12T04:34:24.959Z,81.90
2018-06-12T04:36:53.187Z,82.40
2018-06-12T04:39:21.788Z,81.50
2018-06-12T04:41:49.991Z,81.70
2018-06-12T04:44:18.215Z,82.20
2018-06-12T04:46:46.435Z,82.90
2018-06-12T04:49:14.692Z,80.60
2018-06-12T04:51:42.916Z,82.00
2018-06-12T04:54:11.172Z,81.90
2018-06-12T04:56:39.411Z,82.60
2018-06-12T04:59:07.635Z,81.30
2018-06-12T05:01:35.839Z,79.00
2018-06-12T05:04:04.156Z,81.50
2018-06-12T05:06:32.387Z,80.10
2018-06-12T05:09:00.584Z,79.90
2018-06-12T05:11:28.806Z,80.00
2018-06-12T05:13:57.011Z,77.70
2018-06-12T05:16:25.244Z,77.70
2018-06-12T05:18:53.449Z,76.60
2018-06-12T05:21:21.675Z,75.70
2018-06-12T05:23:49.866Z,75.60
2018-06-12T05:26:18.076Z,74.90
2018-06-12T05:28:46.364Z,76.20
2018-06-12T05:31:14.600Z,73.60
2018-06-12T05:33:43.145Z,76.10
2018-06-12T05:36:11.388Z,75.10
2018-06-12T05:38:39.595Z,76.40
2018-06-12T05:41:07.826Z,76.30
2018-06-12T05:43:36.012Z,75.30
2018-06-12T05:46:04.323Z,73.10
2018-06-12T05:48:32.540Z,73.10
2018-06-12T05:51:00.759Z,73.50
2018-06-12T05:53:28.968Z,73.30
2018-06-12T05:55:57.183Z,73.00
2018-06-12T05:58:25.380Z,73.00
2018-06-12T06:00:53.603Z,68.20
2018-06-12T06:03:21.814Z,68.80
2018-06-12T06:05:50.060Z,71.10
2018-06-12T06:08:18.255Z,68.10
2018-06-12T06:10:46.824Z,67.40
2018-06-12T06:13:15.055Z,65.80
2018-06-12T06:18:11.249Z,64.00
2018-06-12T06:20:39.457Z,63.50
2018-06-12T06:23:07.700Z,64.50
2018-06-12T06:25:35.891Z,65.90
2018-06-12T06:28:04.167Z,66.90
2018-06-12T06:30:32.386Z,66.10
2018-06-12T06:33:00.631Z,63.20
2018-06-12T06:35:28.844Z,59.60
2018-06-12T06:37:57.076Z,59.70
2018-06-12T06:40:25.277Z,59.40
2018-06-12T06:42:53.500Z,58.90
2018-06-12T06:45:21.730Z,60.20
2018-06-12T06:47:49.958Z,59.20
2018-06-12T06:50:18.177Z,58.60
2018-06-12T06:52:46.450Z,56.30
2018-06-12T06:55:14.664Z,54.40
2018-06-12T06:57:42.924Z,53.00
2018-06-12T07:00:11.126Z,55.20
2018-06-12T07:02:39.396Z,54.60
2018-06-12T07:05:07.618Z,52.70
2018-06-12T07:07:35.826Z,51.20
2018-06-12T07:10:04.056Z,51.40
2018-06-12T07:12:32.284Z,51.70
2018-06-12T07:15:00.569Z,52.30
2018-06-12T07:17:28.761Z,51.00
2018-06-12T07:19:56.993Z,49.60
2018-06-12T07:22:25.798Z,50.30
2018-06-12T07:24:54.032Z,49.50
2018-06-12T07:27:22.341Z,51.40
2018-06-12T07:29:50.564Z,50.00
2018-06-12T07:32:18.822Z,48.10
2018-06-12T07:34:47.047Z,47.30
2018-06-12T07:37:15.260Z,40.90
2018-06-12T07:39:43.487Z,34.10
2018-06-12T07:42:11.733Z,37.20
2018-06-12T07:44:39.950Z,34.00
2018-06-12T07:47:08.165Z,29.30
2018-06-12T07:52:04.459Z,29.10
2018-06-12T07:54:32.677Z,34.00
2018-06-12T07:59:29.277Z,29.70
2018-06-12T08:01:57.502Z,28.30
2018-06-12T08:06:53.758Z,28.10
2018-06-12T08:09:21.947Z,31.10
2018-06-12T08:11:50.189Z,36.80
2018-06-12T08:14:18.419Z,41.10
2018-06-12T08:16:46.652Z,41.00
2018-06-12T08:19:14.854Z,41.60
2018-06-12T08:21:43.085Z,37.30
2018-06-12T08:24:11.321Z,30.10
2018-06-12T08:26:39.577Z,25.50
2018-06-12T08:29:07.818Z,25.70
2018-06-12T08:31:36.041Z,28.00
2018-06-12T08:34:04.235Z,28.70
2018-06-12T08:36:32.632Z,29.00
2018-06-12T08:39:00.868Z,29.50
2018-06-12T08:41:29.077Z,29.10
2018-06-12T08:43:57.297Z,28.70
2018-06-12T08:46:25.615Z,29.60
2018-06-12T08:48:53.798Z,30.20
2018-06-12T08:51:22.074Z,34.30
2018-06-12T08:53:50.288Z,33.10
2018-06-12T08:56:18.529Z,30.30
2018-06-12T08:58:46.736Z,31.00
2018-06-12T09:01:14.948Z,27.90
2018-06-12T09:03:43.260Z,25.30
2018-06-12T09:08:39.488Z,28.50
2018-06-12T09:11:07.702Z,32.50
2018-06-12T09:13:35.947Z,30.70
2018-06-12T09:16:04.147Z,26.20
2018-06-12T09:18:32.388Z,23.60
2018-06-12T09:21:00.620Z,22.90
2018-06-12T09:23:28.836Z,28.00
2018-06-12T09:25:57.048Z,31.80
2018-06-12T09:28:25.277Z,30.00
2018-06-12T09:30:53.483Z,27.80
2018-06-12T09:33:21.704Z,28.60
2018-06-12T09:35:49.916Z,29.70
2018-06-12T09:38:18.147Z,28.20
2018-06-12T09:40:46.351Z,30.00
2018-06-12T09:43:14.590Z,31.80
2018-06-12T09:45:42.796Z,33.20
2018-06-12T09:48:11.021Z,33.00
2018-06-12T09:50:39.252Z,34.00
2018-06-12T09:53:07.503Z,35.00
2018-06-12T09:55:35.720Z,32.70
2018-06-12T09:58:04.401Z,33.90
2018-06-12T10:00:37.992Z,37.60
2018-06-12T10:03:06.312Z,36.10
2018-06-12T10:05:34.507Z,36.90
2018-06-12T10:08:02.735Z,35.50
2018-06-12T10:10:30.950Z,35.10
2018-06-12T10:12:59.200Z,38.50
2018-06-12T10:15:27.428Z,40.50
2018-06-12T10:17:55.692Z,40.00
2018-06-12T10:20:23.932Z,41.80
2018-06-12T10:22:52.208Z,40.90
2018-06-12T10:25:20.423Z,39.80
2018-06-12T10:27:48.651Z,41.70
2018-06-12T10:30:16.878Z,40.40
2018-06-12T10:35:13.092Z,39.50
2018-06-12T10:37:41.291Z,40.00
2018-06-12T10:42:37.501Z,41.20
2018-06-12T10:45:05.731Z,39.50
2018-06-12T10:47:33.965Z,39.00
2018-06-12T10:50:02.199Z,41.60
2018-06-12T10:52:30.408Z,40.20
2018-06-12T10:54:58.624Z,39.80
2018-06-12T10:57:26.837Z,39.40
2018-06-12T10:59:55.108Z,41.40
2018-06-12T11:02:23.329Z,40.20
2018-06-12T11:04:51.590Z,42.10
2018-06-12T11:07:19.792Z,41.20
2018-06-12T11:09:48.012Z,42.50
2018-06-12T11:12:16.240Z,40.20
2018-06-12T11:14:44.484Z,41.40
2018-06-12T11:17:12.675Z,42.90
2018-06-12T11:19:40.914Z,43.70
2018-06-12T11:22:09.129Z,42.60
2018-06-12T11:24:37.350Z,44.00
2018-06-12T11:27:05.570Z,44.80
2018-06-12T11:29:33.785Z,43.50
2018-06-12T11:32:01.982Z,42.50
2018-06-12T11:34:30.231Z,42.70
2018-06-12T11:36:58.424Z,42.00
2018-06-12T11:39:26.623Z,43.10
2018-06-12T11:41:54.842Z,41.30
2018-06-12T11:44:23.098Z,40.10
2018-06-12T11:46:51.322Z,39.90
2018-06-12T11:49:19.545Z,37.70
2018-06-12T11:51:47.775Z,40.70
2018-06-12T11:54:15.979Z,39.60
2018-06-12T11:56:44.196Z,38.40
2018-06-12T11:59:13.040Z,38.50
2018-06-12T12:01:41.322Z,38.70
2018-06-12T12:04:09.562Z,38.80
2018-06-12T12:06:37.852Z,41.10
2018-06-12T12:09:08.343Z,40.50
2018-06-12T12:11:37.024Z,40.00
2018-06-12T12:14:05.565Z,40.60
2018-06-12T12:19:01.768Z,37.70
2018-06-12T12:21:29.991Z,35.50
2018-06-12T12:23:58.201Z,38.70
2018-06-12T12:26:26.432Z,38.90
2018-06-12T12:28:54.647Z,41.80
2018-06-12T12:31:23.153Z,42.10
2018-06-12T12:33:51.363Z,41.30
2018-06-12T12:36:19.612Z,43.00
2018-06-12T12:38:47.820Z,40.50
2018-06-12T12:41:16.066Z,37.90
2018-06-12T12:43:44.300Z,38.70
2018-06-12T12:46:12.491Z,38.90
2018-06-12T12:48:40.720Z,41.60
2018-06-12T12:51:08.945Z,42.70
2018-06-12T12:53:37.152Z,41.70
2018-06-12T12:58:33.452Z,41.90
2018-06-12T13:01:01.663Z,41.30
2018-06-12T13:05:57.898Z,42.80
2018-06-12T13:08:26.113Z,43.20
2018-06-12T13:10:54.311Z,44.40
2018-06-12T13:13:22.541Z,43.90
2018-06-12T13:15:50.747Z,44.80
2018-06-12T13:18:19.013Z,44.00
2018-06-12T13:20:47.233Z,42.40
2018-06-12T13:23:15.478Z,40.80
2018-06-12T13:25:43.716Z,41.70
2018-06-12T13:28:11.980Z,41.30
2018-06-12T13:33:08.416Z,43.40
2018-06-12T13:38:04.791Z,42.10
2018-06-12T13:40:33.395Z,43.40
2018-06-12T13:43:02.084Z,44.20
2018-06-12T13:45:30.288Z,43.40
2018-06-12T13:47:58.622Z,42.60
2018-06-12T13:50:26.851Z,43.30
2018-06-12T13:52:55.068Z,41.60
2018-06-12T13:55:23.305Z,42.50
2018-06-12T13:57:51.532Z,40.50
2018-06-12T14:00:19.733Z,40.20
2018-06-12T14:02:47.954Z,39.90
2018-06-12T14:05:16.847Z,38.70
2018-06-12T14:07:45.108Z,39.60
2018-06-12T14:10:13.319Z,37.80
2018-06-12T14:12:41.547Z,38.00
2018-06-12T14:15:09.780Z,39.70
2018-06-12T14:17:37.984Z,39.90
2018-06-12T14:22:34.245Z,41.10
2018-06-12T14:25:02.475Z,40.90
2018-06-12T14:27:30.704Z,42.50
2018-06-12T14:29:58.936Z,42.00
2018-06-12T14:32:27.153Z,42.30
2018-06-12T14:34:55.397Z,41.10
2018-06-12T14:39:51.628Z,40.30
2018-06-12T14:42:19.828Z,40.70
2018-06-12T14:44:48.069Z,39.30
2018-06-12T14:47:16.280Z,38.30
2018-06-12T14:49:44.500Z,38.90
2018-06-12T14:52:12.717Z,39.70
2018-06-12T14:54:40.956Z,41.10
2018-06-12T14:57:09.337Z,41.60
2018-06-12T14:59:37.578Z,40.20
2018-06-12T15:02:05.812Z,41.70
2018-06-12T15:04:34.076Z,41.00
2018-06-12T15:09:30.340Z,42.20
2018-06-12T15:11:58.617Z,42.50
2018-06-12T15:14:26.867Z,44.90
2018-06-12T15:16:55.089Z,43.50
2018-06-12T15:19:23.313Z,44.10
2018-06-12T15:21:51.508Z,44.10
2018-06-12T15:24:19.715Z,44.20
2018-06-12T15:26:47.931Z,43.60
2018-06-12T15:29:16.159Z,42.40
2018-06-12T15:31:44.396Z,43.50
2018-06-12T15:36:40.652Z,41.00
2018-06-12T15:39:08.860Z,43.10
2018-06-12T15:41:37.188Z,43.00
2018-06-12T15:44:05.433Z,43.10
2018-06-12T15:46:33.655Z,44.30
2018-06-12T15:49:01.893Z,42.20
2018-06-12T15:51:30.142Z,42.80
2018-06-12T15:53:58.356Z,42.90
2018-06-12T15:56:26.635Z,45.20
2018-06-12T16:01:22.848Z,44.50
2018-06-12T16:03:51.068Z,43.10
2018-06-12T16:06:19.300Z,44.20
2018-06-12T16:08:47.628Z,44.50
2018-06-12T16:11:15.856Z,44.50
2018-06-12T16:13:44.076Z,44.60
2018-06-12T16:16:12.316Z,44.40
2018-06-12T16:18:40.513Z,43.30
2018-06-12T16:21:08.792Z,45.50
2018-06-12T16:23:37.008Z,45.80
2018-06-12T16:26:05.291Z,44.90
2018-06-12T16:28:33.479Z,45.60
2018-06-12T16:31:01.711Z,47.20
2018-06-12T16:33:29.925Z,47.00
2018-06-12T16:35:58.166Z,46.50
2018-06-12T16:38:26.383Z,46.10
2018-06-12T16:40:54.628Z,47.30
2018-06-12T16:43:31.694Z,45.80
2018-06-12T16:45:59.961Z,46.00
2018-06-12T16:48:28.192Z,47.50
2018-06-12T16:50:56.441Z,50.00
2018-06-12T16:53:24.676Z,50.10
2018-06-12T16:55:52.880Z,48.70
2018-06-12T16:58:21.127Z,47.30
2018-06-12T17:00:49.330Z,47.70
2018-06-12T17:03:17.584Z,48.30
2018-06-12T17:05:45.781Z,48.10
2018-06-12T17:08:14.015Z,47.00
2018-06-12T17:10:42.225Z,47.70
2018-06-12T17:13:10.443Z,47.40
2018-06-12T17:15:38.661Z,46.20
2018-06-12T17:18:06.899Z,47.60
2018-06-12T17:20:35.107Z,48.50
2018-06-12T17:23:03.336Z,48.60
2018-06-12T17:25:31.563Z,50.70
2018-06-12T17:27:59.797Z,51.00
2018-06-12T17:30:28.055Z,49.40
2018-06-12T17:35:24.261Z,50.70
2018-06-12T17:37:52.500Z,50.10
2018-06-12T17:40:20.711Z,49.80
2018-06-12T17:42:48.972Z,49.30
2018-06-12T17:45:17.172Z,50.50
2018-06-12T17:47:45.388Z,51.10
2018-06-12T17:50:13.601Z,51.80
2018-06-12T17:52:41.828Z,51.20
2018-06-12T17:55:10.048Z,51.80
2018-06-12T17:57:38.291Z,52.50
2018-06-12T18:00:06.501Z,51.60
2018-06-12T18:02:34.741Z,51.60
2018-06-12T18:05:02.975Z,53.20
2018-06-12T18:07:31.199Z,53.70
2018-06-12T18:09:59.428Z,53.70
2018-06-12T18:12:27.668Z,54.00
2018-06-12T18:14:55.907Z,53.10
2018-06-12T18:17:24.168Z,53.80
2018-06-12T18:19:57.647Z,55.30
2018-06-12T18:22:25.857Z,54.20
2018-06-12T18:24:54.143Z,55.00
2018-06-12T18:27:22.327Z,55.00
2018-06-12T18:29:50.553Z,54.80
2018-06-12T18:32:18.788Z,55.10
2018-06-12T18:34:47.028Z,54.50
2018-06-12T18:37:15.267Z,56.00
2018-06-12T18:39:43.508Z,54.20
2018-06-12T18:42:11.725Z,55.80
2018-06-12T18:44:39.998Z,55.60
2018-06-12T18:49:36.201Z,56.70
2018-06-12T18:52:04.425Z,56.60
2018-06-12T18:54:32.655Z,58.00
2018-06-12T18:57:00.881Z,58.00
2018-06-12T18:59:29.103Z,58.60
2018-06-12T19:01:57.344Z,58.90
2018-06-12T19:04:25.595Z,59.30
2018-06-12T19:06:53.797Z,60.10
2018-06-12T19:09:22.034Z,60.40
2018-06-12T19:11:50.277Z,62.70
2018-06-12T19:14:18.501Z,61.20
2018-06-12T19:16:46.704Z,61.40
2018-06-12T19:19:14.932Z,61.70
2018-06-12T19:21:43.132Z,62.40
2018-06-12T19:24:11.335Z,63.30
2018-06-12T19:26:39.647Z,63.90
2018-06-12T19:29:07.784Z,64.60
2018-06-12T19:31:36.201Z,65.30
2018-06-12T19:34:04.469Z,65.10
2018-06-12T19:39:04.663Z,65.00
2018-06-12T19:41:32.891Z,65.70
2018-06-12T19:44:01.107Z,65.70
2018-06-12T19:46:29.335Z,67.20
2018-06-12T19:48:57.668Z,66.30
2018-06-12T19:51:25.918Z,65.80
2018-06-12T19:53:54.131Z,66.30
2018-06-12T19:56:22.348Z,66.20
2018-06-12T19:58:50.545Z,65.90
2018-06-12T20:01:18.759Z,65.60
2018-06-12T20:03:46.978Z,65.60
2018-06-12T20:06:15.245Z,66.30
2018-06-12T20:08:43.403Z,65.90
2018-06-12T20:11:11.714Z,64.60
2018-06-12T20:13:40.067Z,64.80
2018-06-12T20:16:08.301Z,65.70
2018-06-12T20:18:36.516Z,64.30
2018-06-12T20:21:04.744Z,64.60
2018-06-12T20:23:32.952Z,65.20
2018-06-12T20:26:01.167Z,64.60
2018-06-12T20:28:29.390Z,64.40
2018-06-12T20:33:25.563Z,64.60
2018-06-12T20:35:53.792Z,64.60
2018-06-12T20:38:22.008Z,65.10
2018-06-12T20:40:50.232Z,65.10
2018-06-12T20:43:18.465Z,63.90
2018-06-12T20:45:46.689Z,64.10
2018-06-12T20:48:14.970Z,64.30
2018-06-12T20:50:43.217Z,65.40
2018-06-12T20:53:11.451Z,65.10
2018-06-12T20:55:39.660Z,65.00
2018-06-12T20:58:07.887Z,66.60
2018-06-12T21:00:36.130Z,65.30
2018-06-12T21:03:04.375Z,64.70
2018-06-12T21:05:32.604Z,64.30
2018-06-12T21:08:00.860Z,65.40
2018-06-12T21:10:29.067Z,64.80
2018-06-12T21:12:57.283Z,65.60
2018-06-12T21:15:25.513Z,65.60
2018-06-12T21:17:53.759Z,65.70
2018-06-12T21:20:21.960Z,65.70
2018-06-12T21:22:50.176Z,65.70
2018-06-12T21:25:18.384Z,65.70
2018-06-12T21:30:14.583Z,65.60
2018-06-12T21:32:42.811Z,65.50
2018-06-12T21:35:11.023Z,64.80
2018-06-12T21:37:39.260Z,65.50
2018-06-12T21:40:07.491Z,65.80
2018-06-12T21:42:35.715Z,65.70
2018-06-12T21:45:03.936Z,64.60
2018-06-12T21:47:32.172Z,64.20
2018-06-12T21:50:00.377Z,65.40
2018-06-12T21:52:28.613Z,63.40
2018-06-12T21:54:56.820Z,63.70
2018-06-12T21:57:25.097Z,62.90
2018-06-12T21:59:53.352Z,63.60
2018-06-12T22:02:21.581Z,62.60
2018-06-12T22:04:49.942Z,63.20
2018-06-12T22:07:18.115Z,63.10
2018-06-12T22:09:46.374Z,65.10
2018-06-12T22:12:14.605Z,64.10
2018-06-12T22:14:42.816Z,63.90
2018-06-12T22:17:11.008Z,64.10
2018-06-12T22:19:39.272Z,64.20
2018-06-12T22:22:07.503Z,64.40
2018-06-12T22:24:35.717Z,64.00
2018-06-12T22:27:03.932Z,64.50
2018-06-12T22:29:32.151Z,65.30
2018-06-12T22:32:00.406Z,64.90
2018-06-12T22:34:28.657Z,64.60
2018-06-12T22:39:24.927Z,64.70
2018-06-12T22:44:21.978Z,65.20
2018-06-12T22:46:50.258Z,65.00
2018-06-12T22:49:18.471Z,64.60
2018-06-12T22:51:46.702Z,64.90
2018-06-12T22:54:14.946Z,63.70
2018-06-12T22:56:43.203Z,64.40
2018-06-12T22:59:11.437Z,63.50
2018-06-12T23:01:39.712Z,64.40
2018-06-12T23:04:07.988Z,63.20
2018-06-12T23:06:36.589Z,63.60
2018-06-12T23:09:07.331Z,64.10
2018-06-12T23:11:35.552Z,63.50
2018-06-12T23:16:31.830Z,63.00
2018-06-12T23:19:00.061Z,64.10
2018-06-12T23:24:14.119Z,65.50
2018-06-12T23:26:42.380Z,64.90
2018-06-12T23:29:10.608Z,64.50
2018-06-12T23:31:38.936Z,64.50
2018-06-12T23:34:07.151Z,65.20
2018-06-12T23:36:35.396Z,63.70
2018-06-12T23:39:04.679Z,65.50
2018-06-12T23:41:32.932Z,67.00
2018-06-12T23:44:01.180Z,69.20
2018-06-12T23:46:29.439Z,70.70
2018-06-12T23:48:57.674Z,69.60
2018-06-12T23:51:25.907Z,68.50
2018-06-12T23:53:54.136Z,68.20
2018-06-12T23:56:22.393Z,66.00
2018-06-12T23:58:50.636Z,66.60
